Time;durP1;ratioP1;P1;durP2;ratioP2;P2;SDS_P1;SDS_P2;PMS_P1;PMS_P2;Temp;Humidity;BMP_temperature;BMP_pressure;BME280_temperature;BME280_humidity;BME280_pressure;Samples;Min_cycle;Max_cycle;Signal;HPM_P1;HPM_P2
2023/06/24 00:00:20;;;;;;;40.28;19.50;;;;;;;;;;6268640;22;20734;-51
2023/06/24 00:03:16;;;;;;;41.22;19.67;;;;;;;;;;6268220;22;20026;-48
2023/06/24 00:06:03;;;;;;;36.40;18.13;;;;;;;;;;6266443;22;20016;-54
2023/06/24 00:09:00;;;;;;;33.85;18.70;;;;;;;;;;6269064;22;20019;-55
2023/06/24 00:11:42;;;;;;;45.40;20.25;;;;;;;;;;6266972;22;20028;-55
2023/06/24 00:14:37;;;;;;;37.53;19.00;;;;;;;;;;6268636;22;20034;-56
2023/06/24 00:17:25;;;;;;;41.72;19.92;;;;;;;;;;6269735;22;20094;-56
2023/06/24 00:20:19;;;;;;;42.67;18.70;;;;;;;;;;6267025;22;20416;-56
2023/06/24 00:23:16;;;;;;;40.38;18.77;;;;;;;;;;6267875;22;20085;-52
2023/06/24 00:26:10;;;;;;;40.60;20.23;;;;;;;;;;6267772;22;20832;-53
2023/06/24 00:28:57;;;;;;;45.20;21.98;;;;;;;;;;6266978;22;20073;-54
2023/06/24 00:31:51;;;;;;;44.85;21.10;;;;;;;;;;6267414;22;20027;-53
2023/06/24 00:34:43;;;;;;;38.65;19.75;;;;;;;;;;6269218;22;20140;-54
2023/06/24 00:37:32;;;;;;;36.42;19.45;;;;;;;;;;6269650;22;20454;-58
2023/06/24 00:40:19;;;;;;;42.78;21.38;;;;;;;;;;6268604;22;20016;-59
2023/06/24 00:43:13;;;;;;;45.78;22.38;;;;;;;;;;6267688;22;20058;-59
2023/06/24 00:46:00;;;;;;;52.78;22.05;;;;;;;;;;6268068;22;20024;-58
2023/06/24 00:48:57;;;;;;;53.63;23.13;;;;;;;;;;6267224;22;20493;-59
2023/06/24 00:51:50;;;;;;;59.13;22.45;;;;;;;;;;6268917;22;20473;-51
2023/06/24 00:54:38;;;;;;;65.18;24.23;;;;;;;;;;6266659;22;20023;-50
2023/06/24 00:57:25;;;;;;;63.80;24.80;;;;;;;;;;6268164;22;20020;-47
2023/06/24 01:00:19;;;;;;;59.80;24.08;;;;;;;;;;6265516;22;20020;-46
2023/06/24 01:03:08;;;;;;;65.25;24.33;;;;;;;;;;6269052;22;20015;-56
2023/06/24 01:06:00;;;;;;;72.32;26.85;;;;;;;;;;6266977;22;20020;-50
2023/06/24 01:08:50;;;;;;;57.45;25.05;;;;;;;;;;6266363;22;20046;-51
2023/06/24 01:11:42;;;;;;;61.72;24.35;;;;;;;;;;6269831;22;20076;-49
2023/06/24 01:14:29;;;;;;;62.92;24.48;;;;;;;;;;6268649;22;20016;-48
2023/06/24 01:17:37;;;;;;;56.67;24.85;;;;;;;;;;6268678;22;20027;-45
2023/06/24 01:20:28;;;;;;;52.42;23.58;;;;;;;;;;6268312;22;20081;-49
2023/06/24 01:23:50;;;;;;;57.88;24.52;;;;;;;;;;6267097;22;20024;-51
2023/06/24 01:26:43;;;;;;;68.55;25.08;;;;;;;;;;6268760;22;20020;-51
2023/06/24 01:29:37;;;;;;;62.28;23.70;;;;;;;;;;6269458;22;20027;-53
2023/06/24 01:32:35;;;;;;;56.95;22.83;;;;;;;;;;6266789;22;20353;-52
2023/06/24 01:35:29;;;;;;;52.55;21.77;;;;;;;;;;6267542;22;20020;-54
2023/06/24 01:38:22;;;;;;;47.10;21.08;;;;;;;;;;6268306;22;20073;-58
2023/06/24 01:41:16;;;;;;;;;;;;;;;;;;6269619;22;20073;-53
2023/06/24 01:44:04;;;;;;;62.63;23.33;;;;;;;;;;6268380;22;19919;-53
2023/06/24 01:46:59;;;;;;;40.50;18.38;;;;;;;;;;6268488;22;20641;-55
2023/06/24 01:49:46;;;;;;;44.45;20.38;;;;;;;;;;6268397;22;20078;-56
2023/06/24 01:52:43;;;;;;;50.28;22.02;;;;;;;;;;6269547;22;20024;-56
2023/06/24 01:55:32;;;;;;;46.00;19.77;;;;;;;;;;6268749;22;20024;-55
2023/06/24 01:58:26;;;;;;;40.83;19.13;;;;;;;;;;6269453;22;20085;-58
2023/06/24 02:01:14;;;;;;;45.25;19.73;;;;;;;;;;6269186;22;20484;-49
2023/06/24 02:04:10;;;;;;;50.15;21.35;;;;;;;;;;6267099;22;20400;-64
2023/06/24 02:06:57;;;;;;;41.20;20.67;;;;;;;;;;6265948;22;20020;-63
2023/06/24 02:09:52;;;;;;;36.35;19.63;;;;;;;;;;6267523;22;20106;-63
2023/06/24 02:12:39;;;;;;;32.38;16.67;;;;;;;;;;6265817;22;20485;-64
2023/06/24 02:15:34;;;;;;;52.67;22.55;;;;;;;;;;6265824;22;20015;-64
2023/06/24 02:18:23;;;;;;;52.45;21.67;;;;;;;;;;6265481;22;20020;-53
2023/06/24 02:21:18;;;;;;;46.50;20.98;;;;;;;;;;6268161;22;20019;-61
2023/06/24 02:24:12;;;;;;;45.53;20.88;;;;;;;;;;6267989;22;20481;-56
2023/06/24 02:27:07;;;;;;;43.53;20.30;;;;;;;;;;6269149;22;20016;-59
2023/06/24 02:29:54;;;;;;;44.15;20.60;;;;;;;;;;6268487;22;20404;-58
2023/06/24 02:32:48;;;;;;;46.80;19.88;;;;;;;;;;6267867;22;20085;-58
2023/06/24 02:35:35;;;;;;;40.08;18.13;;;;;;;;;;6268926;22;20553;-57
2023/06/24 02:38:31;;;;;;;38.58;18.60;;;;;;;;;;6268992;22;20062;-57
2023/06/24 02:41:18;;;;;;;63.17;23.48;;;;;;;;;;6267183;22;20027;-58
2023/06/24 02:44:12;;;;;;;49.92;20.80;;;;;;;;;;6269335;22;20024;-55
2023/06/24 02:46:59;;;;;;;54.20;22.42;;;;;;;;;;6268871;22;20020;-64
2023/06/24 02:49:54;;;;;;;48.15;21.15;;;;;;;;;;6267854;22;20070;-53
2023/06/24 02:52:41;;;;;;;50.53;21.65;;;;;;;;;;6268479;22;20089;-58
2023/06/24 02:55:35;;;;;;;69.28;25.52;;;;;;;;;;6269064;22;20530;-55
2023/06/24 02:58:24;;;;;;;51.83;22.27;;;;;;;;;;6268107;22;20026;-57
2023/06/24 03:01:17;;;;;;;49.72;22.60;;;;;;;;;;6267335;22;20020;-53
2023/06/24 03:04:05;;;;;;;66.88;24.55;;;;;;;;;;6267824;22;20078;-54
2023/06/24 03:07:00;;;;;;;47.67;21.98;;;;;;;;;;6267288;22;20594;-53
2023/06/24 03:09:47;;;;;;;69.00;23.92;;;;;;;;;;6268285;22;20020;-54
2023/06/24 03:12:41;;;;;;;62.25;24.92;;;;;;;;;;6268756;22;20082;-54
2023/06/24 03:15:28;;;;;;;47.42;21.33;;;;;;;;;;6268715;22;20104;-55
2023/06/24 03:18:22;;;;;;;77.82;25.38;;;;;;;;;;6267471;22;20084;-53
2023/06/24 03:21:10;;;;;;;60.95;23.42;;;;;;;;;;6268578;22;20028;-54
2023/06/24 03:24:11;;;;;;;72.90;23.63;;;;;;;;;;6267420;22;20024;-57
2023/06/24 03:26:58;;;;;;;75.60;25.40;;;;;;;;;;6270700;22;20019;-52
2023/06/24 03:29:52;;;;;;;72.88;27.08;;;;;;;;;;6270351;22;20020;-56
2023/06/24 03:32:39;;;;;;;91.45;27.58;;;;;;;;;;6249351;22;20460;-56
2023/06/24 03:35:33;;;;;;;64.35;26.58;;;;;;;;;;6270597;22;20428;-54
2023/06/24 03:38:21;;;;;;;70.07;23.35;;;;;;;;;;6269929;22;20069;-51
2023/06/24 03:41:14;;;;;;;70.07;24.02;;;;;;;;;;6269729;22;20410;-53
2023/06/24 03:44:08;;;;;;;59.63;21.55;;;;;;;;;;6271849;22;20468;-55
2023/06/24 03:46:55;;;;;;;58.08;23.33;;;;;;;;;;6268588;22;20023;-56
2023/06/24 03:49:49;;;;;;;61.80;24.88;;;;;;;;;;6246787;22;20090;-59
2023/06/24 03:52:36;;;;;;;59.35;23.77;;;;;;;;;;6270523;22;20050;-57
2023/06/24 03:55:30;;;;;;;59.03;23.38;;;;;;;;;;6269460;22;20027;-54
2023/06/24 03:58:17;;;;;;;41.35;19.20;;;;;;;;;;6269675;22;20023;-56
2023/06/24 04:01:11;;;;;;;40.85;19.13;;;;;;;;;;6269466;22;20024;-58
2023/06/24 04:04:05;;;;;;;53.72;21.83;;;;;;;;;;6268819;22;20020;-58
2023/06/24 04:06:59;;;;;;;48.92;23.00;;;;;;;;;;6270753;22;20019;-58
2023/06/24 04:09:56;;;;;;;46.38;22.67;;;;;;;;;;6270541;22;20024;-58
2023/06/24 04:12:50;;;;;;;43.65;21.67;;;;;;;;;;6267393;22;20020;-51
2023/06/24 04:15:44;;;;;;;41.88;21.90;;;;;;;;;;6270671;22;20023;-53
2023/06/24 04:18:39;;;;;;;44.75;22.35;;;;;;;;;;6269933;22;20020;-54
2023/06/24 04:21:32;;;;;;;41.75;21.92;;;;;;;;;;6268042;22;20529;-52
2023/06/24 04:24:33;;;;;;;41.28;21.73;;;;;;;;;;6268209;22;20098;-54
2023/06/24 04:27:27;;;;;;;39.08;21.20;;;;;;;;;;6270080;22;20028;-49
2023/06/24 04:30:20;;;;;;;38.55;20.52;;;;;;;;;;6270489;22;20019;-52
2023/06/24 04:33:07;;;;;;;38.35;21.38;;;;;;;;;;6269251;22;20240;-49
2023/06/24 04:36:01;;;;;;;39.92;20.02;;;;;;;;;;6268408;22;20457;-53
2023/06/24 04:38:48;;;;;;;30.17;16.50;;;;;;;;;;6269979;22;20023;-52
2023/06/24 04:41:42;;;;;;;34.55;17.30;;;;;;;;;;6269017;22;20527;-50
2023/06/24 04:44:29;;;;;;;38.55;19.88;;;;;;;;;;6269070;22;20024;-56
2023/06/24 04:47:23;;;;;;;38.38;18.95;;;;;;;;;;6268201;22;20459;-57
2023/06/24 04:50:11;;;;;;;38.88;18.10;;;;;;;;;;6269165;22;20465;-55
2023/06/24 04:53:05;;;;;;;36.22;19.40;;;;;;;;;;6268891;22;20023;-54
2023/06/24 04:55:59;;;;;;;35.65;18.60;;;;;;;;;;6267600;22;20023;-57
2023/06/24 04:58:53;;;;;;;42.30;20.73;;;;;;;;;;6270828;22;20019;-52
2023/06/24 05:01:40;;;;;;;35.22;18.60;;;;;;;;;;6266209;22;20016;-51
2023/06/24 05:04:34;;;;;;;43.28;21.23;;;;;;;;;;6267287;22;20573;-51
2023/06/24 05:07:21;;;;;;;35.78;18.58;;;;;;;;;;6267321;22;20030;-52
2023/06/24 05:10:15;;;;;;;39.20;19.48;;;;;;;;;;6270351;22;20028;-62
2023/06/24 05:13:02;;;;;;;35.28;19.73;;;;;;;;;;6269591;22;20134;-58
2023/06/24 05:15:56;;;;;;;32.42;18.90;;;;;;;;;;6268213;22;20081;-54
2023/06/24 05:18:45;;;;;;;42.25;19.70;;;;;;;;;;6270965;22;20019;-56
2023/06/24 05:21:38;;;;;;;35.50;20.52;;;;;;;;;;6268457;22;20958;-56
2023/06/24 05:24:41;;;;;;;36.17;19.33;;;;;;;;;;6269329;22;20020;-56
2023/06/24 05:27:26;;;;;;;33.97;18.30;;;;;;;;;;6269816;22;20031;-62
2023/06/24 05:30:20;;;;;;;35.10;18.30;;;;;;;;;;6268736;22;20066;-62
2023/06/24 05:33:07;;;;;;;36.28;17.70;;;;;;;;;;6267933;22;20019;-62
2023/06/24 05:36:01;;;;;;;31.52;17.58;;;;;;;;;;6270251;22;20023;-50
2023/06/24 05:38:48;;;;;;;33.17;16.45;;;;;;;;;;6269639;22;20023;-52
2023/06/24 05:41:42;;;;;;;30.95;15.98;;;;;;;;;;6267309;22;20448;-55
2023/06/24 05:44:36;;;;;;;33.63;14.95;;;;;;;;;;6269550;22;20020;-57
2023/06/24 05:47:23;;;;;;;30.17;15.35;;;;;;;;;;6266672;22;20519;-56
2023/06/24 05:50:17;;;;;;;37.38;16.92;;;;;;;;;;6267253;22;20015;-57
2023/06/24 05:53:04;;;;;;;25.52;15.07;;;;;;;;;;6269784;22;20069;-57
2023/06/24 05:55:58;;;;;;;28.92;14.40;;;;;;;;;;6269349;22;20027;-52
2023/06/24 05:58:52;;;;;;;25.50;14.20;;;;;;;;;;6269331;22;20841;-47
2023/06/24 06:01:46;;;;;;;27.60;14.05;;;;;;;;;;6264545;22;20028;-49
2023/06/24 06:04:40;;;;;;;28.08;14.00;;;;;;;;;;6268325;22;20047;-56
2023/06/24 06:07:38;;;;;;;24.67;12.45;;;;;;;;;;6269113;22;20023;-56
2023/06/24 06:10:29;;;;;;;22.48;12.13;;;;;;;;;;6267860;22;20090;-51
2023/06/24 06:13:20;;;;;;;29.23;13.00;;;;;;;;;;6268343;22;20512;-50
2023/06/24 06:16:14;;;;;;;29.55;12.82;;;;;;;;;;6266728;22;20085;-50
2023/06/24 06:19:01;;;;;;;20.77;12.05;;;;;;;;;;6269316;22;20020;-56
2023/06/24 06:21:55;;;;;;;26.10;11.70;;;;;;;;;;6267669;22;20412;-52
2023/06/24 06:24:50;;;;;;;27.83;11.25;;;;;;;;;;6268247;22;20364;-59
2023/06/24 06:27:43;;;;;;;28.27;11.82;;;;;;;;;;6268797;22;20039;-60
2023/06/24 06:30:30;;;;;;;23.95;11.15;;;;;;;;;;6268171;22;20016;-59
2023/06/24 06:33:24;;;;;;;22.15;10.90;;;;;;;;;;6267290;22;20469;-53
2023/06/24 06:36:12;;;;;;;21.80;10.10;;;;;;;;;;6267854;22;20563;-57
2023/06/24 06:39:05;;;;;;;24.88;10.57;;;;;;;;;;6269256;22;20032;-56
2023/06/24 06:41:52;;;;;;;24.02;10.90;;;;;;;;;;6268548;22;20027;-54
2023/06/24 06:44:46;;;;;;;23.27;10.10;;;;;;;;;;6269646;22;20081;-53
2023/06/24 06:47:33;;;;;;;22.67;9.82;;;;;;;;;;6267985;22;20020;-54
2023/06/24 06:50:27;;;;;;;24.23;9.60;;;;;;;;;;6266126;22;20020;-56
2023/06/24 06:53:14;;;;;;;21.23;9.55;;;;;;;;;;6268121;22;20334;-55
2023/06/24 06:56:08;;;;;;;24.20;9.52;;;;;;;;;;6268484;22;20404;-53
2023/06/24 06:58:55;;;;;;;21.02;9.88;;;;;;;;;;6265610;22;20028;-52
2023/06/24 07:01:49;;;;;;;22.92;9.85;;;;;;;;;;6269559;22;20074;-54
2023/06/24 07:04:36;;;;;;;18.75;9.35;;;;;;;;;;6268215;22;20081;-52
2023/06/24 07:07:30;;;;;;;20.67;9.90;;;;;;;;;;6270148;22;20028;-49
2023/06/24 07:10:17;;;;;;;20.02;9.25;;;;;;;;;;6269087;22;20019;-53
2023/06/24 07:13:11;;;;;;;16.38;9.38;;;;;;;;;;6270580;22;20023;-48
2023/06/24 07:16:05;;;;;;;25.73;9.57;;;;;;;;;;6269113;22;20020;-52
2023/06/24 07:18:52;;;;;;;19.38;9.20;;;;;;;;;;6270860;22;20073;-49
2023/06/24 07:21:46;;;;;;;24.92;8.57;;;;;;;;;;6270727;22;20022;-49
2023/06/24 07:24:40;;;;;;;17.42;9.25;;;;;;;;;;6269293;22;20024;-47
2023/06/24 07:27:34;;;;;;;19.95;9.43;;;;;;;;;;6271268;22;20424;-50
2023/06/24 07:30:28;;;;;;;19.13;9.00;;;;;;;;;;6270920;22;20070;-50
2023/06/24 07:33:15;;;;;;;18.02;8.55;;;;;;;;;;6271562;22;20023;-52
2023/06/24 07:36:09;;;;;;;19.85;8.80;;;;;;;;;;6270992;22;20023;-55
2023/06/24 07:38:56;;;;;;;20.42;8.75;;;;;;;;;;6271906;22;20073;-53
2023/06/24 07:41:57;;;;;;;19.50;7.88;;;;;;;;;;6270846;22;20687;-54
2023/06/24 07:44:44;;;;;;;16.00;8.30;;;;;;;;;;6269162;22;20024;-54
2023/06/24 07:47:44;;;;;;;13.25;7.85;;;;;;;;;;6267325;22;20058;-55
2023/06/24 07:50:31;;;;;;;13.88;7.55;;;;;;;;;;6270171;22;20461;-60
2023/06/24 07:53:25;;;;;;;15.35;7.78;;;;;;;;;;6270134;22;20073;-60
2023/06/24 07:56:12;;;;;;;14.52;7.63;;;;;;;;;;6269152;22;20404;-59
2023/06/24 07:59:06;;;;;;;19.17;8.70;;;;;;;;;;6270171;22;20437;-58
2023/06/24 08:01:53;;;;;;;11.38;7.05;;;;;;;;;;6270016;22;20023;-55
2023/06/24 08:04:47;;;;;;;15.00;7.68;;;;;;;;;;6269286;22;20020;-56
2023/06/24 08:07:41;;;;;;;20.90;8.00;;;;;;;;;;6269965;22;20085;-56
2023/06/24 08:10:35;;;;;;;14.85;7.80;;;;;;;;;;6267922;22;20078;-54
2023/06/24 08:13:22;;;;;;;16.73;7.68;;;;;;;;;;6269735;22;20024;-55
2023/06/24 08:16:16;;;;;;;12.30;5.85;;;;;;;;;;6270146;22;20019;-66
2023/06/24 08:19:10;;;;;;;14.38;7.32;;;;;;;;;;6270135;22;20024;-65
2023/06/24 08:22:04;;;;;;;10.35;5.20;;;;;;;;;;6268361;22;20024;-66
2023/06/24 08:25:05;;;;;;;11.85;6.05;;;;;;;;;;6269616;22;20101;-65
2023/06/24 08:27:52;;;;;;;9.68;5.82;;;;;;;;;;6269620;22;20019;-59
2023/06/24 08:30:46;;;;;;;12.68;5.80;;;;;;;;;;6268496;22;20369;-50
2023/06/24 08:33:33;;;;;;;12.32;6.22;;;;;;;;;;6268980;22;20019;-48
2023/06/24 08:36:29;;;;;;;12.80;5.95;;;;;;;;;;6262967;22;20024;-50
2023/06/24 08:39:15;;;;;;;15.10;6.80;;;;;;;;;;6269619;22;20028;-55
2023/06/24 08:42:09;;;;;;;14.25;6.60;;;;;;;;;;6267339;22;20534;-49
2023/06/24 08:44:56;;;;;;;13.27;6.20;;;;;;;;;;6269846;22;20023;-51
2023/06/24 08:47:50;;;;;;;10.02;6.13;;;;;;;;;;6269954;22;20089;-55
2023/06/24 08:50:44;;;;;;;10.97;6.03;;;;;;;;;;6267868;22;20081;-53
2023/06/24 08:53:38;;;;;;;10.88;5.70;;;;;;;;;;6269451;22;20303;-47
2023/06/24 08:56:26;;;;;;;12.68;6.22;;;;;;;;;;6266482;22;20404;-60
2023/06/24 08:59:20;;;;;;;13.18;5.40;;;;;;;;;;6266881;22;20027;-52
2023/06/24 09:02:07;;;;;;;13.20;5.97;;;;;;;;;;6244707;22;20415;-53
2023/06/24 09:05:03;;;;;;;9.55;5.65;;;;;;;;;;6267087;22;20024;-53
2023/06/24 09:07:49;;;;;;;11.40;6.15;;;;;;;;;;6268495;22;20023;-49
2023/06/24 09:10:43;;;;;;;13.85;6.70;;;;;;;;;;6269606;22;20019;-55
2023/06/24 09:13:37;;;;;;;12.57;6.65;;;;;;;;;;6267722;22;20027;-54
2023/06/24 09:16:30;;;;;;;;;;;;;;;;;;6268828;22;20024;-50
2023/06/24 09:19:20;;;;;;;10.57;5.45;;;;;;;;;;6268461;22;19922;-51
2023/06/24 09:22:18;;;;;;;10.55;6.07;;;;;;;;;;6268928;22;20024;-53
2023/06/24 09:25:11;;;;;;;11.27;5.55;;;;;;;;;;6267055;22;20097;-52
2023/06/24 09:28:13;;;;;;;11.45;6.07;;;;;;;;;;6269368;22;20034;-59
2023/06/24 09:31:07;;;;;;;12.07;6.07;;;;;;;;;;6269026;22;20016;-60
2023/06/24 09:34:01;;;;;;;10.63;5.78;;;;;;;;;;6269753;22;20350;-59
2023/06/24 09:36:53;;;;;;;9.15;5.85;;;;;;;;;;6264276;22;20073;-59
2023/06/24 09:39:46;;;;;;;9.38;5.70;;;;;;;;;;6269932;22;20028;-59
2023/06/24 09:42:33;;;;;;;22.15;6.45;;;;;;;;;;6266798;22;20024;-67
2023/06/24 09:45:28;;;;;;;10.02;5.47;;;;;;;;;;6268441;22;20024;-68
2023/06/24 09:48:16;;;;;;;11.90;5.45;;;;;;;;;;6266020;22;20047;-66
2023/06/24 09:51:09;;;;;;;9.77;5.57;;;;;;;;;;6268472;22;20030;-67
2023/06/24 09:54:04;;;;;;;8.02;5.57;;;;;;;;;;6269239;22;20531;-59
2023/06/24 09:57:03;;;;;;;11.35;5.00;;;;;;;;;;6267024;22;20457;-47
2023/06/24 09:59:50;;;;;;;9.68;5.38;;;;;;;;;;6269006;22;20369;-49
2023/06/24 10:02:45;;;;;;;10.65;5.30;;;;;;;;;;6269407;22;20024;-49
2023/06/24 10:05:31;;;;;;;10.73;5.45;;;;;;;;;;6267165;22;20023;-50
2023/06/24 10:08:25;;;;;;;13.45;5.90;;;;;;;;;;6268860;22;20473;-49
2023/06/24 10:11:19;;;;;;;10.55;5.65;;;;;;;;;;6267695;22;20461;-54
2023/06/24 10:14:06;;;;;;;10.57;5.63;;;;;;;;;;6266651;22;20093;-48
2023/06/24 10:17:04;;;;;;;9.48;5.60;;;;;;;;;;6265059;22;20369;-49
2023/06/24 10:19:54;;;;;;;9.73;5.55;;;;;;;;;;6264641;22;20484;-53
2023/06/24 10:22:46;;;;;;;12.70;6.22;;;;;;;;;;6263452;22;20089;-55
2023/06/24 10:25:47;;;;;;;11.13;6.38;;;;;;;;;;6264151;22;20031;-55
2023/06/24 10:29:04;;;;;;;14.20;5.95;;;;;;;;;;6264814;22;20027;-53
2023/06/24 10:31:52;;;;;;;10.57;6.10;;;;;;;;;;6267857;22;20020;-51
2023/06/24 10:34:47;;;;;;;14.75;5.85;;;;;;;;;;6269225;22;20588;-53
2023/06/24 10:37:34;;;;;;;12.00;5.78;;;;;;;;;;6266840;22;20106;-51
2023/06/24 10:40:39;;;;;;;13.48;6.40;;;;;;;;;;6269895;22;20020;-53
2023/06/24 10:43:27;;;;;;;12.57;5.97;;;;;;;;;;6266384;22;20277;-47
2023/06/24 10:46:21;;;;;;;13.48;6.60;;;;;;;;;;6265709;22;20353;-53
2023/06/24 10:49:08;;;;;;;11.18;6.18;;;;;;;;;;6265917;22;20030;-51
2023/06/24 10:52:02;;;;;;;13.25;6.22;;;;;;;;;;6269522;22;20111;-52
2023/06/24 10:54:50;;;;;;;14.13;6.53;;;;;;;;;;6265888;22;20020;-50
2023/06/24 10:57:43;;;;;;;11.60;5.40;;;;;;;;;;6264867;22;20023;-54
2023/06/24 11:00:30;;;;;;;11.00;5.97;;;;;;;;;;6267968;22;20024;-50
2023/06/24 11:03:24;;;;;;;10.82;5.68;;;;;;;;;;6266356;22;20034;-50
2023/06/24 11:06:12;;;;;;;16.48;5.88;;;;;;;;;;6266668;22;20024;-50
2023/06/24 11:09:05;;;;;;;16.33;6.43;;;;;;;;;;6269127;22;20016;-53
2023/06/24 11:11:52;;;;;;;13.80;5.95;;;;;;;;;;6268872;22;20027;-52
2023/06/24 11:14:46;;;;;;;9.85;5.97;;;;;;;;;;6267372;22;20016;-54
2023/06/24 11:17:40;;;;;;;12.68;6.20;;;;;;;;;;6267438;22;20024;-58
2023/06/24 11:20:28;;;;;;;14.63;6.07;;;;;;;;;;6265473;22;20028;-52
2023/06/24 11:23:21;;;;;;;9.15;5.47;;;;;;;;;;6269021;22;20639;-51
2023/06/24 11:26:15;;;;;;;11.95;5.60;;;;;;;;;;6236081;23;20074;-54
2023/06/24 11:29:12;;;;;;;9.35;5.40;;;;;;;;;;6238792;23;20091;-53
2023/06/24 11:31:59;;;;;;;8.48;5.38;;;;;;;;;;6238196;23;20024;-52
2023/06/24 11:34:54;;;;;;;10.82;5.80;;;;;;;;;;6237878;23;20331;-51
2023/06/24 11:37:49;;;;;;;8.75;5.57;;;;;;;;;;6237855;23;20020;-50
2023/06/24 11:40:43;;;;;;;13.40;5.45;;;;;;;;;;6237100;23;20066;-51
2023/06/24 11:43:30;;;;;;;9.20;5.15;;;;;;;;;;6236422;23;20083;-51
2023/06/24 11:46:24;;;;;;;7.10;4.43;;;;;;;;;;6238388;23;20487;-58
2023/06/24 11:49:12;;;;;;;8.15;4.22;;;;;;;;;;6237555;23;20393;-59
2023/06/24 11:52:05;;;;;;;7.90;4.90;;;;;;;;;;6239299;23;20066;-59
2023/06/24 11:54:52;;;;;;;10.52;4.85;;;;;;;;;;6239110;23;20024;-58
2023/06/24 11:57:49;;;;;;;9.65;4.50;;;;;;;;;;6238135;23;20071;-59
2023/06/24 12:00:39;;;;;;;7.00;4.25;;;;;;;;;;6238728;23;20047;-59
2023/06/24 12:03:33;;;;;;;7.18;4.38;;;;;;;;;;6238661;23;20024;-59
2023/06/24 12:06:20;;;;;;;7.90;4.30;;;;;;;;;;6238542;23;20043;-66
2023/06/24 12:09:15;;;;;;;9.63;4.72;;;;;;;;;;6238428;23;20106;-66
2023/06/24 12:12:01;;;;;;;9.10;5.10;;;;;;;;;;6237862;23;20031;-67
2023/06/24 12:14:55;;;;;;;8.55;4.80;;;;;;;;;;6241058;23;20030;-66
2023/06/24 12:17:42;;;;;;;11.40;5.25;;;;;;;;;;6236437;23;20016;-50
2023/06/24 12:20:36;;;;;;;10.50;5.03;;;;;;;;;;6238353;23;20024;-50
2023/06/24 12:23:23;;;;;;;10.20;5.50;;;;;;;;;;6229168;23;20024;-53
2023/06/24 12:26:31;;;;;;;10.82;4.75;;;;;;;;;;6268394;22;20492;-50
2023/06/24 12:29:18;;;;;;;11.60;5.43;;;;;;;;;;6268786;22;20024;-49
2023/06/24 12:32:12;;;;;;;11.77;5.28;;;;;;;;;;6268772;22;20020;-52
2023/06/24 12:35:00;;;;;;;6.88;4.78;;;;;;;;;;6268939;22;20015;-58
2023/06/24 12:37:53;;;;;;;10.90;5.68;;;;;;;;;;6266613;22;20392;-55
2023/06/24 12:40:41;;;;;;;10.97;5.87;;;;;;;;;;6269869;22;20077;-55
2023/06/24 12:43:35;;;;;;;12.07;5.70;;;;;;;;;;6269809;22;20027;-54
2023/06/24 12:46:22;;;;;;;11.68;5.50;;;;;;;;;;6266387;22;20056;-56
2023/06/24 12:49:16;;;;;;;12.63;6.55;;;;;;;;;;6264912;22;20024;-55
2023/06/24 12:52:03;;;;;;;12.85;6.00;;;;;;;;;;6265945;22;20031;-51
2023/06/24 12:54:57;;;;;;;13.98;7.07;;;;;;;;;;6269996;22;20394;-55
2023/06/24 12:57:44;;;;;;;16.33;5.78;;;;;;;;;;6268231;22;20027;-54
2023/06/24 13:00:38;;;;;;;11.40;6.10;;;;;;;;;;6268868;22;20469;-57
2023/06/24 13:03:25;;;;;;;12.10;6.40;;;;;;;;;;6267928;22;20020;-56
2023/06/24 13:06:19;;;;;;;13.07;6.10;;;;;;;;;;6268462;22;20020;-55
2023/06/24 13:09:07;;;;;;;13.00;6.25;;;;;;;;;;6268104;22;20337;-62
2023/06/24 13:12:00;;;;;;;14.95;6.28;;;;;;;;;;6269331;22;20070;-53
2023/06/24 13:14:54;;;;;;;18.58;6.22;;;;;;;;;;6266684;22;20023;-50
2023/06/24 13:17:41;;;;;;;14.05;5.57;;;;;;;;;;6269684;22;20077;-50
2023/06/24 13:20:35;;;;;;;13.63;6.65;;;;;;;;;;6269698;22;20026;-53
2023/06/24 13:23:41;;;;;;;13.25;6.15;;;;;;;;;;6269793;22;20464;-47
2023/06/24 13:26:42;;;;;;;16.08;5.68;;;;;;;;;;6266874;22;20020;-49
2023/06/24 13:29:35;;;;;;;13.80;6.43;;;;;;;;;;6269845;22;20020;-59
2023/06/24 13:32:23;;;;;;;10.45;5.53;;;;;;;;;;6267666;22;20081;-59
2023/06/24 13:35:16;;;;;;;13.90;5.80;;;;;;;;;;6268063;22;20023;-58
2023/06/24 13:38:03;;;;;;;12.82;5.88;;;;;;;;;;6267754;22;20031;-57
2023/06/24 13:40:57;;;;;;;10.85;5.68;;;;;;;;;;6268216;22;20024;-59
2023/06/24 13:43:44;;;;;;;14.65;5.97;;;;;;;;;;6267592;22;20016;-58
2023/06/24 13:46:38;;;;;;;11.73;5.80;;;;;;;;;;6267578;22;20085;-58
2023/06/24 13:49:25;;;;;;;15.27;5.45;;;;;;;;;;6267872;22;20035;-59
2023/06/24 13:52:20;;;;;;;12.75;5.30;;;;;;;;;;6269594;22;20020;-58
2023/06/24 13:55:06;;;;;;;10.57;5.50;;;;;;;;;;6268329;22;20020;-58
2023/06/24 13:58:00;;;;;;;11.93;4.88;;;;;;;;;;6269271;22;20023;-51
2023/06/24 14:00:54;;;;;;;13.82;5.20;;;;;;;;;;6270684;22;20030;-56
2023/06/24 14:03:42;;;;;;;13.33;4.97;;;;;;;;;;6266654;22;20030;-53
2023/06/24 14:06:36;;;;;;;13.48;5.18;;;;;;;;;;6269578;22;20019;-54
2023/06/24 14:09:23;;;;;;;8.85;4.50;;;;;;;;;;6268509;22;20027;-52
2023/06/24 14:12:17;;;;;;;14.75;5.72;;;;;;;;;;6267788;22;20535;-54
2023/06/24 14:15:05;;;;;;;9.23;4.40;;;;;;;;;;6246727;22;20035;-55
2023/06/24 14:17:59;;;;;;;17.63;5.97;;;;;;;;;;6268816;22;20027;-56
2023/06/24 14:20:46;;;;;;;13.88;4.88;;;;;;;;;;6270918;22;20677;-57
2023/06/24 14:23:40;;;;;;;13.40;5.93;;;;;;;;;;6268317;22;20027;-52
2023/06/24 14:26:49;;;;;;;13.43;4.95;;;;;;;;;;6267934;22;20039;-51
2023/06/24 14:29:42;;;;;;;16.13;5.32;;;;;;;;;;6268674;22;20023;-65
2023/06/24 14:32:29;;;;;;;17.20;5.32;;;;;;;;;;6267985;22;20016;-65
2023/06/24 14:35:23;;;;;;;11.90;4.75;;;;;;;;;;6269177;22;20028;-65
2023/06/24 14:38:11;;;;;;;11.15;5.00;;;;;;;;;;6266192;22;20026;-66
2023/06/24 14:41:04;;;;;;;13.30;5.20;;;;;;;;;;6269600;22;20020;-66
2023/06/24 14:43:51;;;;;;;14.52;5.85;;;;;;;;;;6269326;22;20062;-56
2023/06/24 14:46:45;;;;;;;14.20;4.80;;;;;;;;;;6269116;22;20023;-58
2023/06/24 14:49:32;;;;;;;9.90;4.78;;;;;;;;;;6269008;22;20070;-60
2023/06/24 14:52:26;;;;;;;14.30;5.20;;;;;;;;;;6267449;22;20461;-58
2023/06/24 14:55:14;;;;;;;8.55;4.85;;;;;;;;;;6268211;22;20023;-56
2023/06/24 14:58:07;;;;;;;12.73;4.85;;;;;;;;;;6267763;22;20024;-50
2023/06/24 15:00:54;;;;;;;11.15;4.97;;;;;;;;;;6268753;22;20020;-54
2023/06/24 15:03:48;;;;;;;13.52;5.18;;;;;;;;;;6270000;22;20026;-52
2023/06/24 15:06:35;;;;;;;9.25;4.63;;;;;;;;;;6269024;22;20024;-53
2023/06/24 15:09:29;;;;;;;14.80;5.30;;;;;;;;;;6267895;22;20085;-52
2023/06/24 15:12:23;;;;;;;10.88;4.82;;;;;;;;;;6269600;22;20469;-51
2023/06/24 15:15:18;;;;;;;10.63;5.80;;;;;;;;;;6267219;22;20015;-54
2023/06/24 15:18:11;;;;;;;10.82;5.40;;;;;;;;;;6269659;22;20024;-54
2023/06/24 15:20:59;;;;;;;11.52;5.90;;;;;;;;;;6271204;22;20023;-53
2023/06/24 15:24:03;;;;;;;17.58;5.95;;;;;;;;;;6271740;22;20473;-45
2023/06/24 15:27:11;;;;;;;12.93;5.95;;;;;;;;;;6268030;22;20091;-56
2023/06/24 15:30:05;;;;;;;12.30;6.22;;;;;;;;;;6269547;22;20453;-60
2023/06/24 15:32:53;;;;;;;11.40;6.07;;;;;;;;;;6271395;22;20020;-59
2023/06/24 15:35:46;;;;;;;13.15;6.63;;;;;;;;;;6271741;22;20077;-59
2023/06/24 15:38:34;;;;;;;14.20;6.10;;;;;;;;;;6270962;22;20050;-60
2023/06/24 15:41:27;;;;;;;11.75;6.32;;;;;;;;;;6271437;22;20020;-52
2023/06/24 15:44:14;;;;;;;11.38;6.03;;;;;;;;;;6270059;22;20023;-46
2023/06/24 15:47:08;;;;;;;14.15;6.47;;;;;;;;;;6269681;22;20019;-47
2023/06/24 15:49:58;;;;;;;12.20;6.38;;;;;;;;;;6268899;22;20399;-64
2023/06/24 15:52:52;;;;;;;19.45;6.18;;;;;;;;;;6271099;22;20392;-57
2023/06/24 15:55:39;;;;;;;12.52;6.38;;;;;;;;;;6267900;22;20031;-52
2023/06/24 15:58:33;;;;;;;16.20;6.30;;;;;;;;;;6269950;22;20026;-54
2023/06/24 16:01:20;;;;;;;15.60;7.13;;;;;;;;;;6271256;22;20081;-48
2023/06/24 16:04:15;;;;;;;9.85;6.63;;;;;;;;;;6272407;22;20058;-51
2023/06/24 16:07:02;;;;;;;14.18;6.72;;;;;;;;;;6267277;22;20633;-55
2023/06/24 16:09:55;;;;;;;16.42;6.50;;;;;;;;;;6271293;22;20027;-46
2023/06/24 16:12:42;;;;;;;10.68;6.35;;;;;;;;;;6271116;22;20019;-49
2023/06/24 16:15:36;;;;;;;16.75;6.78;;;;;;;;;;6268637;22;20023;-48
2023/06/24 16:18:23;;;;;;;10.32;6.55;;;;;;;;;;6269639;22;20404;-59
2023/06/24 16:21:17;;;;;;;13.13;6.85;;;;;;;;;;6269607;22;20440;-47
2023/06/24 16:24:04;;;;;;;13.35;7.32;;;;;;;;;;6270732;22;20073;-59
2023/06/24 16:27:05;;;;;;;15.25;7.57;;;;;;;;;;6269756;22;20024;-57
2023/06/24 16:29:52;;;;;;;14.52;6.45;;;;;;;;;;6271414;22;20054;-59
2023/06/24 16:32:46;;;;;;;12.57;6.68;;;;;;;;;;6264886;22;20019;-57
2023/06/24 16:35:40;;;;;;;15.60;7.18;;;;;;;;;;6269627;22;20103;-59
2023/06/24 16:38:34;;;;;;;14.23;6.60;;;;;;;;;;6266185;22;20024;-58
2023/06/24 16:41:21;;;;;;;17.30;6.47;;;;;;;;;;6267852;22;20379;-59
2023/06/24 16:44:15;;;;;;;12.18;6.32;;;;;;;;;;6268227;22;20020;-58
2023/06/24 16:47:02;;;;;;;14.20;6.32;;;;;;;;;;6266335;22;20027;-55
2023/06/24 16:49:56;;;;;;;16.00;6.47;;;;;;;;;;6265878;22;20031;-52